createdAt,value
2017-12-22T00:00:05.815Z,0
2017-12-22T00:00:46.427Z,0
2017-12-22T00:01:27.027Z,0
2017-12-22T00:02:07.608Z,0
2017-12-22T00:02:48.178Z,0
2017-12-22T00:03:28.780Z,0
2017-12-22T00:04:09.361Z,0
2017-12-22T00:04:49.934Z,0
2017-12-22T00:05:30.586Z,0
2017-12-22T00:06:11.139Z,0
2017-12-22T00:06:51.727Z,0
2017-12-22T00:07:32.312Z,0
2017-12-22T00:08:12.879Z,0
2017-12-22T00:08:53.478Z,0
2017-12-22T00:09:34.063Z,0
2017-12-22T00:10:14.634Z,0
2017-12-22T00:10:55.202Z,0
2017-12-22T00:11:35.787Z,0
2017-12-22T00:12:16.395Z,0
2017-12-22T00:12:57.005Z,0
2017-12-22T00:13:37.581Z,0
2017-12-22T00:14:18.187Z,0
2017-12-22T00:14:58.762Z,0
2017-12-22T00:15:39.332Z,0
2017-12-22T00:16:19.918Z,0
2017-12-22T00:17:00.500Z,0
2017-12-22T00:17:41.110Z,0
2017-12-22T00:18:21.685Z,0
2017-12-22T00:19:02.255Z,0
2017-12-22T00:19:42.845Z,0
2017-12-22T00:20:23.411Z,0
2017-12-22T00:21:03.989Z,0
2017-12-22T00:21:44.559Z,0
2017-12-22T00:22:25.132Z,0
2017-12-22T00:23:05.707Z,0
2017-12-22T00:23:46.280Z,0
2017-12-22T00:24:26.862Z,0
2017-12-22T00:25:07.426Z,0
2017-12-22T00:25:48.006Z,0
2017-12-22T00:26:28.612Z,0
2017-12-22T00:27:09.194Z,0
2017-12-22T00:27:49.769Z,0
2017-12-22T00:28:30.330Z,0
2017-12-22T00:29:10.891Z,0
2017-12-22T00:29:51.456Z,0
2017-12-22T00:30:32.047Z,0
2017-12-22T00:31:12.626Z,0
2017-12-22T00:31:53.211Z,0
2017-12-22T00:32:33.792Z,0
2017-12-22T00:33:14.358Z,0
2017-12-22T00:33:54.932Z,0
2017-12-22T00:34:35.530Z,0
2017-12-22T00:35:16.115Z,0
2017-12-22T00:35:56.691Z,0
2017-12-22T00:36:37.280Z,0
2017-12-22T00:37:17.876Z,0
2017-12-22T00:37:58.454Z,0
2017-12-22T00:38:39.010Z,0
2017-12-22T00:39:19.579Z,0
2017-12-22T00:40:00.139Z,0
2017-12-22T00:40:40.697Z,0
2017-12-22T00:41:21.267Z,0
2017-12-22T00:42:01.835Z,0
2017-12-22T00:42:42.403Z,0
2017-12-22T00:43:22.989Z,0
2017-12-22T00:44:03.554Z,0
2017-12-22T00:44:44.109Z,0
2017-12-22T00:45:24.677Z,0
2017-12-22T00:46:05.251Z,0
2017-12-22T00:46:45.815Z,0
2017-12-22T00:47:26.373Z,0
2017-12-22T00:48:06.944Z,0
2017-12-22T00:48:47.528Z,0
2017-12-22T00:49:28.102Z,0
2017-12-22T00:50:08.680Z,0
2017-12-22T00:50:49.245Z,0
2017-12-22T00:51:29.819Z,0
2017-12-22T00:52:10.381Z,0
2017-12-22T00:52:50.948Z,0
2017-12-22T00:53:31.541Z,0
2017-12-22T00:54:12.116Z,0
2017-12-22T00:54:52.693Z,0
2017-12-22T00:55:33.269Z,0
2017-12-22T00:56:13.860Z,0
2017-12-22T00:56:54.464Z,0
2017-12-22T00:57:35.039Z,0
2017-12-22T00:58:15.619Z,0
2017-12-22T00:58:56.188Z,0
2017-12-22T00:59:36.758Z,0
2017-12-22T01:00:17.318Z,0
2017-12-22T01:00:57.890Z,0
2017-12-22T01:01:38.463Z,0
2017-12-22T01:02:19.047Z,0
2017-12-22T01:02:59.602Z,0
2017-12-22T01:03:40.178Z,0
2017-12-22T01:04:20.746Z,0
2017-12-22T01:05:01.318Z,0
2017-12-22T01:05:41.917Z,0
2017-12-22T01:06:22.476Z,0
2017-12-22T01:07:03.052Z,0
2017-12-22T01:07:43.667Z,0
2017-12-22T01:08:24.241Z,0
2017-12-22T01:09:04.807Z,0
2017-12-22T01:09:45.359Z,0
2017-12-22T01:10:25.990Z,0
2017-12-22T01:11:06.558Z,0
2017-12-22T01:11:47.150Z,0
2017-12-22T01:12:27.709Z,0
2017-12-22T01:13:08.273Z,0
2017-12-22T01:13:48.844Z,0
2017-12-22T01:14:29.409Z,0
2017-12-22T01:15:09.966Z,0
2017-12-22T01:15:50.533Z,0
2017-12-22T01:16:31.115Z,0
2017-12-22T01:17:11.694Z,0
2017-12-22T01:17:52.264Z,0
2017-12-22T01:18:32.838Z,0
2017-12-22T01:19:13.429Z,0
2017-12-22T01:19:53.985Z,0
2017-12-22T01:20:34.586Z,0
2017-12-22T01:21:15.213Z,0
2017-12-22T01:21:55.798Z,0
2017-12-22T01:22:36.362Z,0
2017-12-22T01:23:16.932Z,0
2017-12-22T01:23:57.490Z,0
2017-12-22T01:24:38.059Z,0
2017-12-22T01:25:18.633Z,0
2017-12-22T01:25:59.208Z,0
2017-12-22T01:26:39.788Z,0
2017-12-22T01:27:20.352Z,0
2017-12-22T01:28:00.952Z,0
2017-12-22T01:28:41.522Z,0
2017-12-22T01:29:22.131Z,0
2017-12-22T01:30:02.690Z,0
2017-12-22T01:30:43.253Z,0
2017-12-22T01:31:23.847Z,0
2017-12-22T01:32:04.418Z,0
2017-12-22T01:32:44.965Z,0
2017-12-22T01:33:25.519Z,0
2017-12-22T01:34:06.087Z,0
2017-12-22T01:34:46.653Z,0
2017-12-22T01:35:27.216Z,0
2017-12-22T01:36:07.785Z,0
2017-12-22T01:36:48.379Z,0
2017-12-22T01:37:28.948Z,0
2017-12-22T01:38:09.532Z,0
2017-12-22T01:38:50.149Z,0
2017-12-22T01:39:30.726Z,0
2017-12-22T01:40:11.292Z,0
2017-12-22T01:40:51.883Z,0
2017-12-22T01:41:32.457Z,0
2017-12-22T01:42:13.023Z,0
2017-12-22T01:42:53.631Z,0
2017-12-22T01:43:34.216Z,0
2017-12-22T01:44:14.791Z,0
2017-12-22T01:44:55.356Z,0
2017-12-22T01:45:43.200Z,0
2017-12-22T01:46:23.768Z,0
2017-12-22T01:47:04.344Z,0
2017-12-22T01:47:44.931Z,0
2017-12-22T01:48:25.492Z,0
2017-12-22T01:49:06.065Z,0
2017-12-22T01:49:46.650Z,0
2017-12-22T01:50:27.245Z,0
2017-12-22T01:51:07.833Z,0
2017-12-22T01:51:48.415Z,0
2017-12-22T01:52:28.981Z,0
2017-12-22T01:53:09.586Z,0
2017-12-22T01:53:50.113Z,0
2017-12-22T01:54:30.708Z,0
2017-12-22T01:55:11.299Z,0
2017-12-22T01:55:51.883Z,0
2017-12-22T01:56:32.493Z,0
2017-12-22T01:57:13.082Z,0
2017-12-22T01:57:53.677Z,0
2017-12-22T01:58:34.271Z,0
2017-12-22T01:59:14.854Z,0
2017-12-22T01:59:55.424Z,0
2017-12-22T02:00:36.022Z,0
2017-12-22T02:01:16.598Z,0
2017-12-22T02:01:57.175Z,0
2017-12-22T02:02:37.763Z,0
2017-12-22T02:03:18.328Z,0
2017-12-22T02:03:58.921Z,0
2017-12-22T02:04:39.485Z,0
2017-12-22T02:05:20.069Z,0
2017-12-22T02:06:00.603Z,0
2017-12-22T02:06:41.177Z,0
2017-12-22T02:07:21.744Z,0
2017-12-22T02:08:02.340Z,0
2017-12-22T02:08:42.905Z,0
2017-12-22T02:09:23.498Z,0
2017-12-22T02:10:04.114Z,0
2017-12-22T02:10:44.687Z,0
2017-12-22T02:11:25.265Z,0
2017-12-22T02:12:05.850Z,0
2017-12-22T02:12:46.458Z,0
2017-12-22T02:13:27.065Z,0
2017-12-22T02:14:07.640Z,0
2017-12-22T02:14:48.201Z,0
2017-12-22T02:15:28.766Z,0
2017-12-22T02:16:09.376Z,0
2017-12-22T02:16:49.927Z,0
2017-12-22T02:17:30.491Z,0
2017-12-22T02:18:11.086Z,0
2017-12-22T02:18:51.650Z,0
2017-12-22T02:19:32.244Z,0
2017-12-22T02:20:12.813Z,0
2017-12-22T02:20:53.374Z,0
2017-12-22T02:21:33.932Z,0
2017-12-22T02:22:14.517Z,0
2017-12-22T02:22:55.085Z,0
2017-12-22T02:23:35.652Z,0
2017-12-22T02:24:16.246Z,0
2017-12-22T02:24:56.867Z,0
2017-12-22T02:25:37.452Z,0
2017-12-22T02:26:18.059Z,0
2017-12-22T02:26:58.644Z,0
2017-12-22T02:27:39.228Z,0
2017-12-22T02:28:19.794Z,0
2017-12-22T02:29:00.363Z,0
2017-12-22T02:29:40.920Z,0
2017-12-22T02:30:21.501Z,0
2017-12-22T02:31:02.104Z,0
2017-12-22T02:31:42.659Z,0
2017-12-22T02:32:23.237Z,0
2017-12-22T02:33:03.807Z,0
2017-12-22T02:33:44.363Z,0
2017-12-22T02:34:24.944Z,0
2017-12-22T02:35:05.524Z,0
2017-12-22T02:35:46.097Z,0
2017-12-22T02:36:26.675Z,0
2017-12-22T02:37:07.238Z,0
2017-12-22T02:37:47.822Z,0
2017-12-22T02:38:28.402Z,0
2017-12-22T02:39:08.955Z,0
2017-12-22T02:39:49.516Z,0
2017-12-22T02:40:30.086Z,0
2017-12-22T02:41:10.660Z,0
2017-12-22T02:41:51.239Z,0
2017-12-22T02:42:31.803Z,0
2017-12-22T02:43:12.396Z,0
2017-12-22T02:43:53.005Z,0
2017-12-22T02:44:33.577Z,0
2017-12-22T02:45:14.143Z,0
2017-12-22T02:45:54.727Z,0
2017-12-22T02:46:35.320Z,0
2017-12-22T02:47:15.891Z,0
2017-12-22T02:47:56.468Z,0
2017-12-22T02:48:37.094Z,0
2017-12-22T02:49:17.657Z,0
2017-12-22T02:49:58.224Z,0
2017-12-22T02:50:38.801Z,0
2017-12-22T02:51:19.371Z,0
2017-12-22T02:51:59.935Z,0
2017-12-22T02:52:40.533Z,0
2017-12-22T02:53:21.106Z,0
2017-12-22T02:54:01.671Z,0
2017-12-22T02:54:42.246Z,0
2017-12-22T02:55:22.810Z,0
2017-12-22T02:56:03.385Z,0
2017-12-22T02:56:43.980Z,0
2017-12-22T02:57:24.527Z,0
2017-12-22T02:58:05.080Z,0
2017-12-22T02:58:45.651Z,0
2017-12-22T02:59:26.214Z,0
2017-12-22T03:00:06.790Z,0
2017-12-22T03:00:47.379Z,0
2017-12-22T03:01:27.974Z,0
2017-12-22T03:02:08.544Z,0
2017-12-22T03:02:49.153Z,0
2017-12-22T03:03:29.717Z,0
2017-12-22T03:04:10.292Z,0
2017-12-22T03:04:50.888Z,0
2017-12-22T03:05:31.523Z,0
2017-12-22T03:06:12.034Z,0
2017-12-22T03:06:52.601Z,0
2017-12-22T03:07:33.196Z,0
2017-12-22T03:08:13.766Z,0
2017-12-22T03:08:54.337Z,0
2017-12-22T03:09:34.924Z,0
2017-12-22T03:10:15.507Z,0
2017-12-22T03:10:56.074Z,0
2017-12-22T03:11:36.695Z,0
2017-12-22T03:12:17.227Z,0
2017-12-22T03:12:57.807Z,0
2017-12-22T03:13:38.381Z,0
2017-12-22T03:14:18.945Z,0
2017-12-22T03:14:59.514Z,0
2017-12-22T03:15:40.075Z,0
2017-12-22T03:16:20.639Z,0
2017-12-22T03:17:01.214Z,0
2017-12-22T03:17:41.781Z,0
2017-12-22T03:18:22.354Z,0
2017-12-22T03:19:02.920Z,0
2017-12-22T03:19:43.500Z,0
2017-12-22T03:20:24.092Z,0
2017-12-22T03:21:04.686Z,0
2017-12-22T03:21:45.262Z,0
2017-12-22T03:22:25.852Z,0
2017-12-22T03:23:06.428Z,0
2017-12-22T03:23:47.007Z,0
2017-12-22T03:24:27.633Z,0
2017-12-22T03:25:08.199Z,0
2017-12-22T03:25:48.762Z,0
2017-12-22T03:26:29.383Z,0
2017-12-22T03:27:09.973Z,0
2017-12-22T03:27:50.547Z,0
2017-12-22T03:28:31.120Z,0
2017-12-22T03:29:11.697Z,0
2017-12-22T03:29:52.278Z,0
2017-12-22T03:30:32.859Z,0
2017-12-22T03:31:13.438Z,0
2017-12-22T03:31:53.999Z,0
2017-12-22T03:32:34.584Z,0
2017-12-22T03:33:15.161Z,0
2017-12-22T03:33:55.732Z,0
2017-12-22T03:34:36.308Z,0
2017-12-22T03:35:16.884Z,0
2017-12-22T03:35:57.448Z,0
2017-12-22T03:36:38.040Z,0
2017-12-22T03:37:18.598Z,0
2017-12-22T03:37:59.171Z,0
2017-12-22T03:38:39.756Z,0
2017-12-22T03:39:20.335Z,0
2017-12-22T03:40:00.919Z,0
2017-12-22T03:40:41.508Z,0
2017-12-22T03:41:22.114Z,0
2017-12-22T03:42:02.674Z,0
2017-12-22T03:42:43.253Z,0
2017-12-22T03:43:23.819Z,0
2017-12-22T03:44:04.426Z,0
2017-12-22T03:44:45.002Z,0
2017-12-22T03:45:25.561Z,0
2017-12-22T03:46:06.111Z,0
2017-12-22T03:46:46.676Z,0
2017-12-22T03:47:27.300Z,0
2017-12-22T03:48:07.854Z,0
2017-12-22T03:48:48.425Z,0
2017-12-22T03:49:28.988Z,0
2017-12-22T03:50:09.606Z,0
2017-12-22T03:50:50.161Z,0
2017-12-22T03:51:30.746Z,0
2017-12-22T03:52:11.324Z,0
2017-12-22T03:52:51.891Z,0
2017-12-22T03:53:32.496Z,0
2017-12-22T03:54:13.111Z,0
2017-12-22T03:54:53.694Z,0
2017-12-22T03:55:34.263Z,0
2017-12-22T03:56:14.868Z,0
2017-12-22T03:56:55.447Z,0
2017-12-22T03:57:36.017Z,0
2017-12-22T03:58:16.590Z,0
2017-12-22T03:58:57.163Z,0
2017-12-22T03:59:37.743Z,0
2017-12-22T04:00:18.306Z,0
2017-12-22T04:00:58.910Z,0
2017-12-22T04:01:39.484Z,0
2017-12-22T04:02:20.057Z,0
2017-12-22T04:03:00.613Z,0
2017-12-22T04:03:41.180Z,0
2017-12-22T04:04:21.744Z,0
2017-12-22T04:05:02.310Z,0
2017-12-22T04:05:42.894Z,0
2017-12-22T04:06:23.453Z,0
2017-12-22T04:07:04.026Z,0
2017-12-22T04:07:44.652Z,0
2017-12-22T04:08:25.266Z,0
2017-12-22T04:09:05.815Z,0
2017-12-22T04:09:46.367Z,0
2017-12-22T04:10:26.959Z,0
2017-12-22T04:11:07.531Z,0
2017-12-22T04:11:48.111Z,0
2017-12-22T04:12:28.676Z,0
2017-12-22T04:13:09.242Z,0
2017-12-22T04:13:49.818Z,0
2017-12-22T04:14:30.410Z,0
2017-12-22T04:15:11.030Z,0
2017-12-22T04:15:51.593Z,0
2017-12-22T04:16:32.168Z,0
2017-12-22T04:17:12.777Z,0
2017-12-22T04:17:53.388Z,0
2017-12-22T04:18:34.017Z,0
2017-12-22T04:19:14.595Z,0
2017-12-22T04:19:55.167Z,0
2017-12-22T04:20:35.729Z,0
2017-12-22T04:21:16.289Z,0
2017-12-22T04:21:56.857Z,0
2017-12-22T04:22:37.440Z,0
2017-12-22T04:23:18.022Z,0
2017-12-22T04:23:58.583Z,0
2017-12-22T04:24:39.166Z,0
2017-12-22T04:25:19.777Z,0
2017-12-22T04:26:00.328Z,0
2017-12-22T04:26:40.895Z,0
2017-12-22T04:27:21.468Z,0
2017-12-22T04:28:02.030Z,0
2017-12-22T04:28:42.590Z,0
2017-12-22T04:29:23.179Z,0
2017-12-22T04:30:03.763Z,0
2017-12-22T04:30:44.338Z,0
2017-12-22T04:31:24.943Z,0
2017-12-22T04:32:05.506Z,0
2017-12-22T04:32:46.114Z,0
2017-12-22T04:33:26.683Z,0
2017-12-22T04:34:07.251Z,0
2017-12-22T04:34:47.863Z,0
2017-12-22T04:35:28.418Z,0
2017-12-22T04:36:09.032Z,0
2017-12-22T04:36:49.637Z,0
2017-12-22T04:37:30.210Z,0
2017-12-22T04:38:10.770Z,0
2017-12-22T04:38:51.366Z,0
2017-12-22T04:39:31.934Z,0
2017-12-22T04:40:12.528Z,0
2017-12-22T04:40:53.103Z,0
2017-12-22T04:41:33.672Z,0
2017-12-22T04:42:14.262Z,0
2017-12-22T04:42:54.844Z,0
2017-12-22T04:43:35.469Z,0
2017-12-22T04:44:16.042Z,0
2017-12-22T04:44:56.614Z,0
2017-12-22T04:45:37.182Z,0
2017-12-22T04:46:17.757Z,0
2017-12-22T04:46:58.348Z,0
2017-12-22T04:47:38.925Z,0
2017-12-22T04:48:19.492Z,0
2017-12-22T04:49:00.057Z,0
2017-12-22T04:49:40.658Z,0
2017-12-22T04:50:21.228Z,0
2017-12-22T04:51:01.802Z,0
2017-12-22T04:51:42.370Z,0
2017-12-22T04:52:22.944Z,0
2017-12-22T04:53:03.511Z,0
2017-12-22T04:53:44.075Z,0
2017-12-22T04:54:24.644Z,0
2017-12-22T04:55:05.222Z,0
2017-12-22T04:55:45.800Z,0
2017-12-22T04:56:26.375Z,0
2017-12-22T04:57:06.958Z,0
2017-12-22T04:57:47.511Z,0
2017-12-22T04:58:28.106Z,0
2017-12-22T04:59:08.713Z,0
2017-12-22T04:59:49.273Z,0
2017-12-22T05:00:29.838Z,0
2017-12-22T05:01:10.403Z,0
2017-12-22T05:01:50.989Z,0
2017-12-22T05:02:31.598Z,0
2017-12-22T05:03:12.193Z,0
2017-12-22T05:03:52.742Z,0
2017-12-22T05:04:33.321Z,0
2017-12-22T05:05:13.946Z,0
2017-12-22T05:05:54.545Z,0
2017-12-22T05:06:35.114Z,0
2017-12-22T05:07:15.682Z,0
2017-12-22T05:07:56.260Z,0
2017-12-22T05:08:36.841Z,0
2017-12-22T05:09:17.418Z,0
2017-12-22T05:09:58.028Z,0
2017-12-22T05:10:38.583Z,0
2017-12-22T05:11:19.148Z,0
2017-12-22T05:11:59.721Z,0
2017-12-22T05:12:40.335Z,0
2017-12-22T05:13:20.918Z,0
2017-12-22T05:14:01.490Z,0
2017-12-22T05:14:42.058Z,0
2017-12-22T05:15:22.639Z,0
2017-12-22T05:16:03.209Z,0
2017-12-22T05:16:43.797Z,0
2017-12-22T05:17:24.405Z,0
2017-12-22T05:18:04.995Z,0
2017-12-22T05:18:45.593Z,0
2017-12-22T05:19:26.166Z,0
2017-12-22T05:20:06.725Z,0
2017-12-22T05:20:47.299Z,0
2017-12-22T05:21:27.937Z,0
2017-12-22T05:22:08.449Z,0
2017-12-22T05:22:49.017Z,0
2017-12-22T05:23:29.691Z,0
2017-12-22T05:24:10.279Z,0
2017-12-22T05:24:50.856Z,0
2017-12-22T05:25:31.430Z,0
2017-12-22T05:26:12.005Z,0
2017-12-22T05:26:52.632Z,0
2017-12-22T05:27:33.212Z,0
2017-12-22T05:28:13.795Z,0
2017-12-22T05:28:54.374Z,0
2017-12-22T05:29:34.974Z,0
2017-12-22T05:30:15.568Z,0
2017-12-22T05:30:56.170Z,0
2017-12-22T05:31:36.782Z,0
2017-12-22T05:32:17.581Z,0
2017-12-22T05:32:58.097Z,0
2017-12-22T05:33:38.672Z,0
2017-12-22T05:34:19.349Z,0
2017-12-22T05:35:00.158Z,0
2017-12-22T05:35:40.747Z,0
2017-12-22T05:36:21.315Z,0
2017-12-22T05:37:01.925Z,0
2017-12-22T05:37:42.498Z,0
2017-12-22T05:38:23.076Z,0
2017-12-22T05:39:03.704Z,0
2017-12-22T05:39:44.300Z,0
2017-12-22T05:40:24.893Z,0
2017-12-22T05:41:05.477Z,0
2017-12-22T05:41:46.039Z,0
2017-12-22T05:42:26.622Z,0
2017-12-22T05:43:07.199Z,0
2017-12-22T05:43:47.782Z,0
2017-12-22T05:44:28.362Z,0
2017-12-22T05:45:08.935Z,0
2017-12-22T05:45:49.495Z,0
2017-12-22T05:46:30.068Z,0
2017-12-22T05:47:10.634Z,0
2017-12-22T05:47:51.225Z,0
2017-12-22T05:48:31.789Z,0
2017-12-22T05:49:12.360Z,0
2017-12-22T05:49:52.948Z,0
2017-12-22T05:50:33.531Z,0
2017-12-22T05:51:14.088Z,0
2017-12-22T05:51:54.672Z,0
2017-12-22T05:52:35.266Z,0
2017-12-22T05:53:15.845Z,0
2017-12-22T05:53:56.423Z,0
2017-12-22T05:54:36.984Z,0
2017-12-22T05:55:17.569Z,0
2017-12-22T05:55:58.122Z,0
2017-12-22T05:56:38.719Z,0
2017-12-22T05:57:19.275Z,0
2017-12-22T05:57:59.870Z,0
2017-12-22T05:58:40.472Z,0
2017-12-22T05:59:21.030Z,0
2017-12-22T06:00:01.605Z,0
2017-12-22T06:00:42.177Z,0
2017-12-22T06:01:22.736Z,0
2017-12-22T06:02:03.327Z,0
2017-12-22T06:02:43.920Z,0
2017-12-22T06:03:24.492Z,0
2017-12-22T06:04:05.067Z,0
2017-12-22T06:04:45.663Z,0
2017-12-22T06:05:26.258Z,0
2017-12-22T06:06:06.841Z,0
2017-12-22T06:06:47.420Z,0
2017-12-22T06:07:27.993Z,0
2017-12-22T06:08:08.553Z,0
2017-12-22T06:08:49.163Z,0
2017-12-22T06:09:29.727Z,0
2017-12-22T06:10:10.303Z,0
2017-12-22T06:10:50.888Z,0
2017-12-22T06:11:31.450Z,0
2017-12-22T06:12:12.047Z,0
2017-12-22T06:12:52.713Z,0
2017-12-22T06:13:33.277Z,0
2017-12-22T06:14:13.877Z,0
2017-12-22T06:14:54.480Z,0
2017-12-22T06:15:35.057Z,0
2017-12-22T06:16:15.642Z,0
2017-12-22T06:16:56.238Z,0
2017-12-22T06:17:36.860Z,0
2017-12-22T06:18:17.601Z,0
2017-12-22T06:18:58.194Z,0
2017-12-22T06:19:38.773Z,0
2017-12-22T06:20:19.344Z,0
2017-12-22T06:20:59.941Z,0
2017-12-22T06:21:40.538Z,0
2017-12-22T06:22:21.098Z,0
2017-12-22T06:23:01.690Z,0
2017-12-22T06:23:42.265Z,0
2017-12-22T06:24:22.835Z,0
2017-12-22T06:25:03.469Z,0
2017-12-22T06:25:44.075Z,0
2017-12-22T06:26:24.688Z,0
2017-12-22T06:27:05.243Z,0
2017-12-22T06:27:45.836Z,0
2017-12-22T06:28:26.386Z,0
2017-12-22T06:29:06.986Z,0
2017-12-22T06:29:47.588Z,0
2017-12-22T06:30:28.156Z,0
2017-12-22T06:31:08.722Z,0
2017-12-22T06:31:49.281Z,0
2017-12-22T06:32:29.902Z,0
2017-12-22T06:33:10.468Z,0
2017-12-22T06:33:51.030Z,0
2017-12-22T06:34:31.590Z,0
2017-12-22T06:35:12.164Z,0
2017-12-22T06:35:52.730Z,0
2017-12-22T06:36:33.312Z,0
2017-12-22T06:37:13.905Z,0
2017-12-22T06:37:54.512Z,0
2017-12-22T06:38:35.172Z,0
2017-12-22T06:39:15.766Z,0
2017-12-22T06:39:56.357Z,0
2017-12-22T06:40:36.929Z,0
2017-12-22T06:41:17.482Z,0
2017-12-22T06:41:58.057Z,0
2017-12-22T06:42:38.642Z,0
2017-12-22T06:43:19.205Z,0
2017-12-22T06:43:59.783Z,0
2017-12-22T06:44:40.375Z,0
2017-12-22T06:45:20.997Z,0
2017-12-22T06:46:01.577Z,0
2017-12-22T06:46:42.150Z,0
2017-12-22T06:47:22.729Z,0
2017-12-22T06:48:03.297Z,0
2017-12-22T06:48:43.864Z,0
2017-12-22T06:49:24.449Z,0
2017-12-22T06:50:05.036Z,0
2017-12-22T06:50:45.611Z,0
2017-12-22T06:51:26.213Z,0
2017-12-22T06:52:06.793Z,0
2017-12-22T06:52:47.362Z,0
2017-12-22T06:53:27.935Z,0
2017-12-22T06:54:08.516Z,0
2017-12-22T06:54:49.097Z,0
2017-12-22T06:55:29.673Z,0
2017-12-22T06:56:10.224Z,0
2017-12-22T06:56:50.786Z,0
2017-12-22T06:57:31.366Z,0
2017-12-22T06:58:11.968Z,0
2017-12-22T06:58:52.548Z,0
2017-12-22T06:59:33.122Z,0
2017-12-22T07:00:13.726Z,0
2017-12-22T07:00:54.328Z,0
2017-12-22T07:01:34.923Z,0
2017-12-22T07:02:15.478Z,0
2017-12-22T07:02:56.059Z,0
2017-12-22T07:03:36.632Z,0
2017-12-22T07:04:17.226Z,0
2017-12-22T07:04:57.834Z,0
2017-12-22T07:05:38.406Z,0
2017-12-22T07:06:18.991Z,0
2017-12-22T07:06:59.582Z,0
2017-12-22T07:07:40.140Z,0
2017-12-22T07:08:20.750Z,0
2017-12-22T07:09:01.321Z,0
2017-12-22T07:09:41.901Z,0
2017-12-22T07:10:22.468Z,0
2017-12-22T07:11:03.046Z,0
2017-12-22T07:11:43.600Z,0
2017-12-22T07:12:24.184Z,0
2017-12-22T07:13:04.778Z,0
2017-12-22T07:13:45.352Z,0
2017-12-22T07:14:25.928Z,0
2017-12-22T07:15:06.534Z,0
2017-12-22T07:15:47.109Z,0
2017-12-22T07:16:27.682Z,0
2017-12-22T07:17:08.250Z,0
2017-12-22T07:17:48.822Z,0
2017-12-22T07:18:29.401Z,0
2017-12-22T07:19:09.971Z,0
2017-12-22T07:19:50.554Z,0
2017-12-22T07:20:31.135Z,0
2017-12-22T07:21:11.739Z,0
2017-12-22T07:21:52.303Z,0
2017-12-22T07:22:32.869Z,0
2017-12-22T07:23:13.441Z,0
2017-12-22T07:23:54.064Z,0
2017-12-22T07:24:34.666Z,0
2017-12-22T07:25:15.223Z,0
2017-12-22T07:25:55.805Z,0
2017-12-22T07:26:36.408Z,0
2017-12-22T07:27:17.094Z,0
2017-12-22T07:27:57.708Z,0
2017-12-22T07:28:38.287Z,0
2017-12-22T07:29:18.898Z,0
2017-12-22T07:29:59.478Z,0
2017-12-22T07:30:40.060Z,0
2017-12-22T07:31:20.630Z,0
2017-12-22T07:32:01.196Z,0
2017-12-22T07:32:41.796Z,0
2017-12-22T07:33:22.396Z,0
2017-12-22T07:34:02.959Z,0
2017-12-22T07:34:43.527Z,0
2017-12-22T07:35:24.110Z,0
2017-12-22T07:36:04.727Z,0
2017-12-22T07:36:45.307Z,0
2017-12-22T07:37:25.868Z,5
2017-12-22T07:38:06.446Z,5
2017-12-22T07:38:47.017Z,5
2017-12-22T07:39:27.587Z,5
2017-12-22T07:40:08.145Z,5
2017-12-22T07:40:48.727Z,5
2017-12-22T07:41:29.319Z,5
2017-12-22T07:42:09.880Z,5
2017-12-22T07:42:50.455Z,5
2017-12-22T07:43:31.026Z,5
2017-12-22T07:44:11.603Z,5
2017-12-22T07:44:52.182Z,5
2017-12-22T07:45:32.756Z,5
2017-12-22T07:46:13.326Z,5
2017-12-22T07:46:53.922Z,5
2017-12-22T07:47:34.506Z,5
2017-12-22T07:48:15.127Z,5
2017-12-22T07:48:55.724Z,5
2017-12-22T07:49:36.325Z,5
2017-12-22T07:50:16.922Z,5
2017-12-22T07:50:57.495Z,5
2017-12-22T07:51:38.094Z,5
2017-12-22T07:52:18.673Z,5
2017-12-22T07:52:59.300Z,10
2017-12-22T07:53:39.864Z,10
2017-12-22T07:54:20.432Z,10
2017-12-22T07:55:01.044Z,10
2017-12-22T07:55:41.605Z,10
2017-12-22T07:56:22.192Z,10
2017-12-22T07:57:02.791Z,10
2017-12-22T07:57:43.351Z,10
2017-12-22T07:58:23.944Z,10
2017-12-22T07:59:04.563Z,10
2017-12-22T07:59:45.163Z,10
2017-12-22T08:00:25.758Z,10
2017-12-22T08:01:06.367Z,10
2017-12-22T08:01:46.898Z,10
2017-12-22T08:02:27.469Z,10
2017-12-22T08:03:08.078Z,5
2017-12-22T08:03:48.646Z,5
2017-12-22T08:04:29.289Z,5
2017-12-22T08:05:09.892Z,5
2017-12-22T08:05:50.494Z,5
2017-12-22T08:06:31.105Z,5
2017-12-22T08:07:11.687Z,5
2017-12-22T08:07:52.263Z,5
2017-12-22T08:08:32.830Z,5
2017-12-22T08:09:13.413Z,5
2017-12-22T08:09:53.988Z,5
2017-12-22T08:10:34.555Z,5
2017-12-22T08:11:15.121Z,10
2017-12-22T08:11:55.751Z,10
2017-12-22T08:12:36.377Z,10
2017-12-22T08:13:16.950Z,10
2017-12-22T08:13:57.535Z,10
2017-12-22T08:14:38.132Z,10
2017-12-22T08:15:18.704Z,10
2017-12-22T08:15:59.271Z,10
2017-12-22T08:16:39.837Z,10
2017-12-22T08:17:20.409Z,10
2017-12-22T08:18:01.003Z,10
2017-12-22T08:18:41.604Z,10
2017-12-22T08:19:22.210Z,10
2017-12-22T08:20:02.794Z,10
2017-12-22T08:20:43.407Z,10
2017-12-22T08:21:23.997Z,15
2017-12-22T08:22:04.584Z,15
2017-12-22T08:22:45.164Z,15
2017-12-22T08:23:25.732Z,15
2017-12-22T08:24:06.307Z,15
2017-12-22T08:24:46.880Z,15
2017-12-22T08:25:27.436Z,15
2017-12-22T08:26:08.031Z,15
2017-12-22T08:26:48.597Z,15
2017-12-22T08:27:29.155Z,15
2017-12-22T08:28:09.743Z,15
2017-12-22T08:28:50.319Z,15
2017-12-22T08:29:30.926Z,15
2017-12-22T08:30:11.502Z,15
2017-12-22T08:30:52.108Z,15
2017-12-22T08:31:32.723Z,15
2017-12-22T08:32:13.303Z,15
2017-12-22T08:32:53.933Z,15
2017-12-22T08:33:34.520Z,15
2017-12-22T08:34:15.117Z,15
2017-12-22T08:34:55.700Z,15
2017-12-22T08:35:36.282Z,15
2017-12-22T08:36:16.865Z,15
2017-12-22T08:36:57.466Z,15
2017-12-22T08:37:38.086Z,15
2017-12-22T08:38:18.674Z,15
2017-12-22T08:38:59.267Z,20
2017-12-22T08:39:39.823Z,20
2017-12-22T08:40:20.421Z,20
2017-12-22T08:41:00.986Z,25
2017-12-22T08:41:41.794Z,25
2017-12-22T08:42:22.397Z,25
2017-12-22T08:43:02.961Z,25
2017-12-22T08:43:43.589Z,30
2017-12-22T08:44:24.206Z,30
2017-12-22T08:45:04.787Z,30
2017-12-22T08:45:45.347Z,30
2017-12-22T08:46:25.924Z,30
2017-12-22T08:47:06.491Z,25
2017-12-22T08:47:47.064Z,25
2017-12-22T08:48:27.657Z,25
2017-12-22T08:49:08.249Z,25
2017-12-22T08:49:48.840Z,20
2017-12-22T08:50:29.447Z,20
2017-12-22T08:51:10.025Z,20
2017-12-22T08:51:50.637Z,20
2017-12-22T08:52:31.222Z,15
2017-12-22T08:53:11.818Z,15
2017-12-22T08:53:52.413Z,15
2017-12-22T08:54:32.983Z,15
2017-12-22T08:55:13.568Z,15
2017-12-22T08:55:54.153Z,15
2017-12-22T08:56:34.743Z,15
2017-12-22T08:57:15.324Z,15
2017-12-22T08:57:55.893Z,10
2017-12-22T08:58:36.512Z,10
2017-12-22T08:59:17.097Z,10
2017-12-22T08:59:57.676Z,10
2017-12-22T09:00:38.274Z,10
2017-12-22T09:01:18.873Z,10
2017-12-22T09:01:59.446Z,10
2017-12-22T09:02:40.012Z,10
2017-12-22T09:03:20.604Z,10
2017-12-22T09:04:01.181Z,10
2017-12-22T09:04:41.773Z,10
2017-12-22T09:05:22.377Z,10
2017-12-22T09:06:02.929Z,10
2017-12-22T09:06:43.488Z,10
2017-12-22T09:07:24.056Z,10
2017-12-22T09:08:04.611Z,10
2017-12-22T09:08:45.180Z,10
2017-12-22T09:09:25.776Z,10
2017-12-22T09:10:06.344Z,10
2017-12-22T09:10:46.910Z,15
2017-12-22T09:11:27.486Z,15
2017-12-22T09:12:08.092Z,15
2017-12-22T09:12:48.670Z,15
2017-12-22T09:13:29.269Z,20
2017-12-22T09:14:09.858Z,20
2017-12-22T09:14:50.435Z,20
2017-12-22T09:15:30.992Z,20
2017-12-22T09:16:11.588Z,25
2017-12-22T09:16:52.162Z,25
2017-12-22T09:17:32.784Z,25
2017-12-22T09:18:13.368Z,30
2017-12-22T09:18:53.984Z,30
2017-12-22T09:19:34.574Z,30
2017-12-22T09:20:15.149Z,30
2017-12-22T09:20:55.712Z,30
2017-12-22T09:21:36.319Z,30
2017-12-22T09:22:16.878Z,30
2017-12-22T09:22:57.440Z,25
2017-12-22T09:23:38.029Z,25
2017-12-22T09:24:18.601Z,25
2017-12-22T09:24:59.172Z,25
2017-12-22T09:25:39.741Z,25
2017-12-22T09:26:20.315Z,25
2017-12-22T09:27:00.875Z,25
2017-12-22T09:27:41.486Z,25
2017-12-22T09:28:22.036Z,30
2017-12-22T09:29:02.704Z,30
2017-12-22T09:29:43.168Z,30
2017-12-22T09:30:23.803Z,30
2017-12-22T09:31:04.376Z,30
2017-12-22T09:31:44.953Z,30
2017-12-22T09:32:25.541Z,30
2017-12-22T09:33:06.238Z,35
2017-12-22T09:33:46.703Z,30
2017-12-22T09:34:27.277Z,25
2017-12-22T09:35:07.890Z,25
2017-12-22T09:35:48.462Z,30
2017-12-22T09:36:29.038Z,30
2017-12-22T09:37:09.622Z,30
2017-12-22T09:37:50.213Z,30
2017-12-22T09:38:30.823Z,30
2017-12-22T09:39:11.393Z,30
2017-12-22T09:39:51.999Z,30
2017-12-22T09:40:32.594Z,30
2017-12-22T09:41:13.209Z,30
2017-12-22T09:41:53.779Z,30
2017-12-22T09:42:34.341Z,30
2017-12-22T09:43:14.904Z,30
2017-12-22T09:43:55.478Z,30
2017-12-22T09:44:36.071Z,30
2017-12-22T09:45:16.646Z,30
2017-12-22T09:45:57.229Z,30
2017-12-22T09:46:37.824Z,30
2017-12-22T09:47:18.384Z,30
2017-12-22T09:47:58.962Z,30
2017-12-22T09:48:39.546Z,30
2017-12-22T09:49:20.103Z,30
2017-12-22T09:50:00.690Z,35
2017-12-22T09:50:41.267Z,35
2017-12-22T09:51:21.854Z,35
2017-12-22T09:52:02.434Z,35
2017-12-22T09:52:43.026Z,35
2017-12-22T09:53:23.613Z,40
2017-12-22T09:54:04.204Z,40
2017-12-22T09:54:44.782Z,40
2017-12-22T09:55:25.353Z,40